sensor_id;sensor_type;location;lat;lon;timestamp;P1;durP1;ratioP1;P2;durP2;ratioP2
50002;SDS011;35889;51.442;6.408;2022-07-10T00:01:03;0.60;;;0.60;;
50002;SDS011;35889;51.442;6.408;2022-07-10T00:03:29;0.60;;;0.60;;
50002;SDS011;35889;51.442;6.408;2022-07-10T00:05:54;0.60;;;0.60;;
50002;SDS011;35889;51.442;6.408;2022-07-10T00:08:20;0.60;;;0.60;;
50002;SDS011;35889;51.442;6.408;2022-07-10T00:10:45;0.60;;;0.60;;
50002;SDS011;35889;51.442;6.408;2022-07-10T00:13:11;0.60;;;0.60;;
50002;SDS011;35889;51.442;6.408;2022-07-10T00:15:36;0.60;;;0.60;;
50002;SDS011;35889;51.442;6.408;2022-07-10T00:18:02;0.60;;;0.60;;
50002;SDS011;35889;51.442;6.408;2022-07-10T00:20:27;0.60;;;0.60;;
50002;SDS011;35889;51.442;6.408;2022-07-10T00:22:53;0.65;;;0.65;;
50002;SDS011;35889;51.442;6.408;2022-07-10T00:25:18;0.60;;;0.60;;
50002;SDS011;35889;51.442;6.408;2022-07-10T00:27:43;0.60;;;0.60;;
50002;SDS011;35889;51.442;6.408;2022-07-10T00:30:09;0.60;;;0.60;;
50002;SDS011;35889;51.442;6.408;2022-07-10T00:32:35;0.60;;;0.60;;
50002;SDS011;35889;51.442;6.408;2022-07-10T00:35:02;0.60;;;0.60;;
50002;SDS011;35889;51.442;6.408;2022-07-10T00:37:28;0.70;;;0.70;;
50002;SDS011;35889;51.442;6.408;2022-07-10T00:39:54;0.60;;;0.60;;
50002;SDS011;35889;51.442;6.408;2022-07-10T00:42:19;0.60;;;0.60;;
50002;SDS011;35889;51.442;6.408;2022-07-10T00:44:45;0.60;;;0.60;;
50002;SDS011;35889;51.442;6.408;2022-07-10T00:47:11;0.60;;;0.60;;
50002;SDS011;35889;51.442;6.408;2022-07-10T00:49:37;0.60;;;0.60;;
50002;SDS011;35889;51.442;6.408;2022-07-10T00:52:06;0.60;;;0.60;;
50002;SDS011;35889;51.442;6.408;2022-07-10T00:54:33;0.70;;;0.70;;
50002;SDS011;35889;51.442;6.408;2022-07-10T00:56:59;0.60;;;0.60;;
50002;SDS011;35889;51.442;6.408;2022-07-10T00:59:25;0.60;;;0.60;;
50002;SDS011;35889;51.442;6.408;2022-07-10T01:01:51;0.60;;;0.60;;
50002;SDS011;35889;51.442;6.408;2022-07-10T01:04:17;0.60;;;0.60;;
50002;SDS011;35889;51.442;6.408;2022-07-10T01:06:42;0.60;;;0.60;;
50002;SDS011;35889;51.442;6.408;2022-07-10T01:09:08;0.57;;;0.57;;
50002;SDS011;35889;51.442;6.408;2022-07-10T01:11:33;0.60;;;0.60;;
50002;SDS011;35889;51.442;6.408;2022-07-10T01:14:00;0.60;;;0.60;;
50002;SDS011;35889;51.442;6.408;2022-07-10T01:16:26;0.60;;;0.60;;
50002;SDS011;35889;51.442;6.408;2022-07-10T01:18:51;0.60;;;0.60;;
50002;SDS011;35889;51.442;6.408;2022-07-10T01:21:23;0.60;;;0.60;;
50002;SDS011;35889;51.442;6.408;2022-07-10T01:23:52;0.60;;;0.60;;
50002;SDS011;35889;51.442;6.408;2022-07-10T01:26:19;0.60;;;0.60;;
50002;SDS011;35889;51.442;6.408;2022-07-10T01:28:46;0.70;;;0.70;;
50002;SDS011;35889;51.442;6.408;2022-07-10T01:31:13;0.60;;;0.60;;
50002;SDS011;35889;51.442;6.408;2022-07-10T01:33:39;0.60;;;0.60;;
50002;SDS011;35889;51.442;6.408;2022-07-10T01:36:04;0.60;;;0.60;;
50002;SDS011;35889;51.442;6.408;2022-07-10T01:38:30;0.60;;;0.60;;
50002;SDS011;35889;51.442;6.408;2022-07-10T01:40:55;0.60;;;0.60;;
50002;SDS011;35889;51.442;6.408;2022-07-10T01:43:21;0.60;;;0.60;;
50002;SDS011;35889;51.442;6.408;2022-07-10T01:45:46;0.60;;;0.60;;
50002;SDS011;35889;51.442;6.408;2022-07-10T01:48:12;0.60;;;0.60;;
50002;SDS011;35889;51.442;6.408;2022-07-10T01:50:37;0.60;;;0.60;;
50002;SDS011;35889;51.442;6.408;2022-07-10T01:53:03;0.60;;;0.60;;
50002;SDS011;35889;51.442;6.408;2022-07-10T01:55:31;0.60;;;0.60;;
50002;SDS011;35889;51.442;6.408;2022-07-10T01:57:56;0.50;;;0.50;;
50002;SDS011;35889;51.442;6.408;2022-07-10T02:00:26;0.60;;;0.60;;
50002;SDS011;35889;51.442;6.408;2022-07-10T02:02:51;0.60;;;0.60;;
50002;SDS011;35889;51.442;6.408;2022-07-10T02:05:35;0.60;;;0.60;;
50002;SDS011;35889;51.442;6.408;2022-07-10T02:08:02;0.55;;;0.55;;
50002;SDS011;35889;51.442;6.408;2022-07-10T02:10:28;0.60;;;0.60;;
50002;SDS011;35889;51.442;6.408;2022-07-10T02:12:54;0.60;;;0.60;;
50002;SDS011;35889;51.442;6.408;2022-07-10T02:15:21;0.60;;;0.60;;
50002;SDS011;35889;51.442;6.408;2022-07-10T02:17:47;0.60;;;0.60;;
50002;SDS011;35889;51.442;6.408;2022-07-10T02:20:12;0.60;;;0.60;;
50002;SDS011;35889;51.442;6.408;2022-07-10T02:22:38;0.60;;;0.60;;
50002;SDS011;35889;51.442;6.408;2022-07-10T02:25:03;0.60;;;0.60;;
50002;SDS011;35889;51.442;6.408;2022-07-10T02:27:29;0.50;;;0.50;;
50002;SDS011;35889;51.442;6.408;2022-07-10T02:29:54;0.60;;;0.60;;
50002;SDS011;35889;51.442;6.408;2022-07-10T02:32:20;0.60;;;0.60;;
50002;SDS011;35889;51.442;6.408;2022-07-10T02:34:47;0.60;;;0.60;;
50002;SDS011;35889;51.442;6.408;2022-07-10T02:37:12;0.60;;;0.60;;
50002;SDS011;35889;51.442;6.408;2022-07-10T02:39:38;0.60;;;0.60;;
50002;SDS011;35889;51.442;6.408;2022-07-10T02:42:03;0.60;;;0.60;;
50002;SDS011;35889;51.442;6.408;2022-07-10T02:44:29;0.60;;;0.60;;
50002;SDS011;35889;51.442;6.408;2022-07-10T02:46:54;0.60;;;0.60;;
50002;SDS011;35889;51.442;6.408;2022-07-10T02:49:20;0.60;;;0.60;;
50002;SDS011;35889;51.442;6.408;2022-07-10T02:51:45;0.50;;;0.50;;
50002;SDS011;35889;51.442;6.408;2022-07-10T02:54:11;0.60;;;0.60;;
50002;SDS011;35889;51.442;6.408;2022-07-10T02:56:36;0.80;;;0.80;;
50002;SDS011;35889;51.442;6.408;2022-07-10T02:59:02;0.60;;;0.60;;
50002;SDS011;35889;51.442;6.408;2022-07-10T03:01:27;0.60;;;0.60;;
50002;SDS011;35889;51.442;6.408;2022-07-10T03:03:53;0.60;;;0.60;;
50002;SDS011;35889;51.442;6.408;2022-07-10T03:06:18;0.60;;;0.60;;
50002;SDS011;35889;51.442;6.408;2022-07-10T03:08:44;0.60;;;0.60;;
50002;SDS011;35889;51.442;6.408;2022-07-10T03:11:09;0.63;;;0.63;;
50002;SDS011;35889;51.442;6.408;2022-07-10T03:13:35;0.60;;;0.60;;
50002;SDS011;35889;51.442;6.408;2022-07-10T03:16:00;0.60;;;0.60;;
50002;SDS011;35889;51.442;6.408;2022-07-10T03:18:25;0.60;;;0.60;;
50002;SDS011;35889;51.442;6.408;2022-07-10T03:20:51;0.60;;;0.60;;
50002;SDS011;35889;51.442;6.408;2022-07-10T03:23:17;0.60;;;0.60;;
50002;SDS011;35889;51.442;6.408;2022-07-10T03:25:42;0.70;;;0.70;;
50002;SDS011;35889;51.442;6.408;2022-07-10T03:28:08;0.60;;;0.60;;
50002;SDS011;35889;51.442;6.408;2022-07-10T03:30:33;0.60;;;0.60;;
50002;SDS011;35889;51.442;6.408;2022-07-10T03:32:59;0.60;;;0.60;;
50002;SDS011;35889;51.442;6.408;2022-07-10T03:35:24;0.60;;;0.60;;
50002;SDS011;35889;51.442;6.408;2022-07-10T03:37:50;0.60;;;0.60;;
50002;SDS011;35889;51.442;6.408;2022-07-10T03:40:16;0.70;;;0.70;;
50002;SDS011;35889;51.442;6.408;2022-07-10T03:42:41;0.60;;;0.60;;
50002;SDS011;35889;51.442;6.408;2022-07-10T03:45:07;0.60;;;0.60;;
50002;SDS011;35889;51.442;6.408;2022-07-10T03:47:33;0.60;;;0.60;;
50002;SDS011;35889;51.442;6.408;2022-07-10T03:49:58;0.60;;;0.60;;
50002;SDS011;35889;51.442;6.408;2022-07-10T03:52:24;0.60;;;0.60;;
50002;SDS011;35889;51.442;6.408;2022-07-10T03:54:49;0.70;;;0.70;;
50002;SDS011;35889;51.442;6.408;2022-07-10T03:57:14;0.70;;;0.70;;
50002;SDS011;35889;51.442;6.408;2022-07-10T03:59:58;0.70;;;0.70;;
50002;SDS011;35889;51.442;6.408;2022-07-10T04:02:24;0.60;;;0.60;;
50002;SDS011;35889;51.442;6.408;2022-07-10T04:04:49;0.60;;;0.60;;
50002;SDS011;35889;51.442;6.408;2022-07-10T04:07:14;0.60;;;0.60;;
50002;SDS011;35889;51.442;6.408;2022-07-10T04:09:41;0.60;;;0.60;;
50002;SDS011;35889;51.442;6.408;2022-07-10T04:12:07;0.60;;;0.60;;
50002;SDS011;35889;51.442;6.408;2022-07-10T04:14:32;0.60;;;0.60;;
50002;SDS011;35889;51.442;6.408;2022-07-10T04:16:58;0.70;;;0.70;;
50002;SDS011;35889;51.442;6.408;2022-07-10T04:19:24;0.70;;;0.70;;
50002;SDS011;35889;51.442;6.408;2022-07-10T04:21:49;0.60;;;0.60;;
50002;SDS011;35889;51.442;6.408;2022-07-10T04:24:14;0.70;;;0.70;;
50002;SDS011;35889;51.442;6.408;2022-07-10T04:26:40;0.70;;;0.70;;
50002;SDS011;35889;51.442;6.408;2022-07-10T04:29:05;0.60;;;0.60;;
50002;SDS011;35889;51.442;6.408;2022-07-10T04:31:31;0.70;;;0.70;;
50002;SDS011;35889;51.442;6.408;2022-07-10T04:33:56;0.70;;;0.70;;
50002;SDS011;35889;51.442;6.408;2022-07-10T04:36:23;0.60;;;0.60;;
50002;SDS011;35889;51.442;6.408;2022-07-10T04:38:48;0.60;;;0.60;;
50002;SDS011;35889;51.442;6.408;2022-07-10T04:41:14;0.60;;;0.60;;
50002;SDS011;35889;51.442;6.408;2022-07-10T04:43:39;0.65;;;0.65;;
50002;SDS011;35889;51.442;6.408;2022-07-10T04:46:05;0.70;;;0.70;;
50002;SDS011;35889;51.442;6.408;2022-07-10T04:48:31;0.60;;;0.60;;
50002;SDS011;35889;51.442;6.408;2022-07-10T04:50:57;0.50;;;0.50;;
50002;SDS011;35889;51.442;6.408;2022-07-10T04:53:23;0.60;;;0.60;;
50002;SDS011;35889;51.442;6.408;2022-07-10T04:55:48;0.60;;;0.60;;
50002;SDS011;35889;51.442;6.408;2022-07-10T04:58:14;0.60;;;0.60;;
50002;SDS011;35889;51.442;6.408;2022-07-10T05:00:39;0.60;;;0.60;;
50002;SDS011;35889;51.442;6.408;2022-07-10T05:03:05;0.60;;;0.60;;
50002;SDS011;35889;51.442;6.408;2022-07-10T05:05:30;0.60;;;0.60;;
50002;SDS011;35889;51.442;6.408;2022-07-10T05:07:55;0.60;;;0.60;;
50002;SDS011;35889;51.442;6.408;2022-07-10T05:10:21;0.57;;;0.57;;
50002;SDS011;35889;51.442;6.408;2022-07-10T05:12:47;0.70;;;0.70;;
50002;SDS011;35889;51.442;6.408;2022-07-10T05:15:13;0.60;;;0.60;;
50002;SDS011;35889;51.442;6.408;2022-07-10T05:17:38;0.60;;;0.60;;
50002;SDS011;35889;51.442;6.408;2022-07-10T05:20:04;0.60;;;0.60;;
50002;SDS011;35889;51.442;6.408;2022-07-10T05:22:30;0.60;;;0.60;;
50002;SDS011;35889;51.442;6.408;2022-07-10T05:24:56;0.60;;;0.60;;
50002;SDS011;35889;51.442;6.408;2022-07-10T05:27:21;0.60;;;0.60;;
50002;SDS011;35889;51.442;6.408;2022-07-10T05:29:47;0.60;;;0.60;;
50002;SDS011;35889;51.442;6.408;2022-07-10T05:32:13;0.60;;;0.60;;
50002;SDS011;35889;51.442;6.408;2022-07-10T05:34:38;0.60;;;0.60;;
50002;SDS011;35889;51.442;6.408;2022-07-10T05:37:04;0.60;;;0.60;;
50002;SDS011;35889;51.442;6.408;2022-07-10T05:39:30;0.70;;;0.70;;
50002;SDS011;35889;51.442;6.408;2022-07-10T05:41:55;0.60;;;0.60;;
50002;SDS011;35889;51.442;6.408;2022-07-10T05:44:22;0.60;;;0.60;;
50002;SDS011;35889;51.442;6.408;2022-07-10T05:46:48;0.70;;;0.70;;
50002;SDS011;35889;51.442;6.408;2022-07-10T05:49:13;0.70;;;0.70;;
50002;SDS011;35889;51.442;6.408;2022-07-10T05:51:39;0.60;;;0.60;;
50002;SDS011;35889;51.442;6.408;2022-07-10T05:54:04;0.60;;;0.60;;
50002;SDS011;35889;51.442;6.408;2022-07-10T05:56:30;0.60;;;0.60;;
50002;SDS011;35889;51.442;6.408;2022-07-10T05:58:56;0.60;;;0.60;;
50002;SDS011;35889;51.442;6.408;2022-07-10T06:01:22;0.60;;;0.60;;
50002;SDS011;35889;51.442;6.408;2022-07-10T06:03:48;0.60;;;0.60;;
50002;SDS011;35889;51.442;6.408;2022-07-10T06:06:13;0.60;;;0.60;;
50002;SDS011;35889;51.442;6.408;2022-07-10T06:08:40;0.68;;;0.68;;
50002;SDS011;35889;51.442;6.408;2022-07-10T06:11:06;0.60;;;0.60;;
50002;SDS011;35889;51.442;6.408;2022-07-10T06:13:32;0.70;;;0.70;;
50002;SDS011;35889;51.442;6.408;2022-07-10T06:15:57;0.60;;;0.60;;
50002;SDS011;35889;51.442;6.408;2022-07-10T06:18:23;0.60;;;0.60;;
50002;SDS011;35889;51.442;6.408;2022-07-10T06:20:48;0.60;;;0.60;;
50002;SDS011;35889;51.442;6.408;2022-07-10T06:23:13;0.60;;;0.60;;
50002;SDS011;35889;51.442;6.408;2022-07-10T06:25:39;0.60;;;0.60;;
50002;SDS011;35889;51.442;6.408;2022-07-10T06:28:04;0.70;;;0.70;;
50002;SDS011;35889;51.442;6.408;2022-07-10T06:30:30;0.70;;;0.70;;
50002;SDS011;35889;51.442;6.408;2022-07-10T06:32:55;0.65;;;0.65;;
50002;SDS011;35889;51.442;6.408;2022-07-10T06:35:21;0.60;;;0.60;;
50002;SDS011;35889;51.442;6.408;2022-07-10T06:37:46;0.60;;;0.60;;
50002;SDS011;35889;51.442;6.408;2022-07-10T06:40:12;0.70;;;0.70;;
50002;SDS011;35889;51.442;6.408;2022-07-10T06:42:39;0.60;;;0.60;;
50002;SDS011;35889;51.442;6.408;2022-07-10T06:45:09;0.67;;;0.67;;
50002;SDS011;35889;51.442;6.408;2022-07-10T06:47:35;0.70;;;0.70;;
50002;SDS011;35889;51.442;6.408;2022-07-10T06:50:19;0.65;;;0.65;;
50002;SDS011;35889;51.442;6.408;2022-07-10T06:52:46;0.60;;;0.60;;
50002;SDS011;35889;51.442;6.408;2022-07-10T06:55:12;0.60;;;0.60;;
50002;SDS011;35889;51.442;6.408;2022-07-10T06:57:37;0.70;;;0.70;;
50002;SDS011;35889;51.442;6.408;2022-07-10T07:00:03;0.60;;;0.60;;
50002;SDS011;35889;51.442;6.408;2022-07-10T07:02:29;0.65;;;0.65;;
50002;SDS011;35889;51.442;6.408;2022-07-10T07:04:54;0.63;;;0.63;;
50002;SDS011;35889;51.442;6.408;2022-07-10T07:07:20;0.60;;;0.60;;
50002;SDS011;35889;51.442;6.408;2022-07-10T07:09:45;0.70;;;0.70;;
50002;SDS011;35889;51.442;6.408;2022-07-10T07:12:14;0.60;;;0.60;;
50002;SDS011;35889;51.442;6.408;2022-07-10T07:14:40;0.70;;;0.70;;
50002;SDS011;35889;51.442;6.408;2022-07-10T07:17:05;0.70;;;0.70;;
50002;SDS011;35889;51.442;6.408;2022-07-10T07:19:33;0.60;;;0.60;;
50002;SDS011;35889;51.442;6.408;2022-07-10T07:22:18;0.80;;;0.80;;
50002;SDS011;35889;51.442;6.408;2022-07-10T07:25:06;0.70;;;0.70;;
50002;SDS011;35889;51.442;6.408;2022-07-10T07:27:33;0.70;;;0.70;;
50002;SDS011;35889;51.442;6.408;2022-07-10T07:30:03;0.70;;;0.70;;
50002;SDS011;35889;51.442;6.408;2022-07-10T07:32:33;0.70;;;0.70;;
50002;SDS011;35889;51.442;6.408;2022-07-10T07:34:59;0.70;;;0.70;;
50002;SDS011;35889;51.442;6.408;2022-07-10T07:37:34;0.70;;;0.70;;
50002;SDS011;35889;51.442;6.408;2022-07-10T07:40:00;0.70;;;0.70;;
50002;SDS011;35889;51.442;6.408;2022-07-10T07:42:25;0.70;;;0.70;;
50002;SDS011;35889;51.442;6.408;2022-07-10T07:44:51;0.70;;;0.70;;
50002;SDS011;35889;51.442;6.408;2022-07-10T07:47:16;0.60;;;0.60;;
50002;SDS011;35889;51.442;6.408;2022-07-10T07:49:41;0.60;;;0.60;;
50002;SDS011;35889;51.442;6.408;2022-07-10T07:52:07;0.70;;;0.70;;
50002;SDS011;35889;51.442;6.408;2022-07-10T07:54:32;0.60;;;0.60;;
50002;SDS011;35889;51.442;6.408;2022-07-10T07:56:58;0.60;;;0.60;;
50002;SDS011;35889;51.442;6.408;2022-07-10T07:59:23;0.70;;;0.70;;
50002;SDS011;35889;51.442;6.408;2022-07-10T08:01:49;0.60;;;0.60;;
50002;SDS011;35889;51.442;6.408;2022-07-10T08:04:14;0.73;;;0.73;;
50002;SDS011;35889;51.442;6.408;2022-07-10T08:06:40;0.70;;;0.70;;
50002;SDS011;35889;51.442;6.408;2022-07-10T08:09:05;0.70;;;0.70;;
50002;SDS011;35889;51.442;6.408;2022-07-10T08:11:31;0.60;;;0.60;;
50002;SDS011;35889;51.442;6.408;2022-07-10T08:13:56;0.55;;;0.55;;
50002;SDS011;35889;51.442;6.408;2022-07-10T08:16:22;0.60;;;0.60;;
50002;SDS011;35889;51.442;6.408;2022-07-10T08:18:47;0.60;;;0.60;;
50002;SDS011;35889;51.442;6.408;2022-07-10T08:21:13;0.60;;;0.60;;
50002;SDS011;35889;51.442;6.408;2022-07-10T08:23:38;0.70;;;0.70;;
50002;SDS011;35889;51.442;6.408;2022-07-10T08:26:04;0.52;;;0.52;;
50002;SDS011;35889;51.442;6.408;2022-07-10T08:28:29;0.63;;;0.63;;
50002;SDS011;35889;51.442;6.408;2022-07-10T08:30:55;0.60;;;0.60;;
50002;SDS011;35889;51.442;6.408;2022-07-10T08:33:20;0.60;;;0.60;;
50002;SDS011;35889;51.442;6.408;2022-07-10T08:35:46;0.70;;;0.70;;
50002;SDS011;35889;51.442;6.408;2022-07-10T08:38:11;0.70;;;0.70;;
50002;SDS011;35889;51.442;6.408;2022-07-10T08:40:37;0.60;;;0.60;;
50002;SDS011;35889;51.442;6.408;2022-07-10T08:43:03;0.70;;;0.70;;
50002;SDS011;35889;51.442;6.408;2022-07-10T08:45:32;0.60;;;0.60;;
50002;SDS011;35889;51.442;6.408;2022-07-10T08:48:02;0.70;;;0.70;;
50002;SDS011;35889;51.442;6.408;2022-07-10T08:50:31;0.70;;;0.70;;
50002;SDS011;35889;51.442;6.408;2022-07-10T08:53:01;0.70;;;0.70;;
50002;SDS011;35889;51.442;6.408;2022-07-10T08:55:32;0.70;;;0.70;;
50002;SDS011;35889;51.442;6.408;2022-07-10T08:57:58;0.70;;;0.70;;
50002;SDS011;35889;51.442;6.408;2022-07-10T09:00:24;0.70;;;0.70;;
50002;SDS011;35889;51.442;6.408;2022-07-10T09:02:50;0.60;;;0.60;;
50002;SDS011;35889;51.442;6.408;2022-07-10T09:05:15;0.70;;;0.70;;
50002;SDS011;35889;51.442;6.408;2022-07-10T09:07:41;0.60;;;0.60;;
50002;SDS011;35889;51.442;6.408;2022-07-10T09:10:08;0.70;;;0.70;;
50002;SDS011;35889;51.442;6.408;2022-07-10T09:12:51;0.70;;;0.70;;
50002;SDS011;35889;51.442;6.408;2022-07-10T09:15:22;0.70;;;0.70;;
50002;SDS011;35889;51.442;6.408;2022-07-10T09:17:49;0.70;;;0.70;;
50002;SDS011;35889;51.442;6.408;2022-07-10T09:20:25;0.70;;;0.70;;
50002;SDS011;35889;51.442;6.408;2022-07-10T09:22:52;0.70;;;0.70;;
50002;SDS011;35889;51.442;6.408;2022-07-10T09:25:17;0.70;;;0.70;;
50002;SDS011;35889;51.442;6.408;2022-07-10T09:27:52;0.70;;;0.70;;
50002;SDS011;35889;51.442;6.408;2022-07-10T09:33:24;0.80;;;0.80;;
50002;SDS011;35889;51.442;6.408;2022-07-10T09:36:09;0.70;;;0.70;;
50002;SDS011;35889;51.442;6.408;2022-07-10T09:41:14;0.70;;;0.70;;
50002;SDS011;35889;51.442;6.408;2022-07-10T09:43:53;0.70;;;0.70;;
50002;SDS011;35889;51.442;6.408;2022-07-10T09:46:19;0.80;;;0.80;;
50002;SDS011;35889;51.442;6.408;2022-07-10T09:48:46;0.70;;;0.70;;
50002;SDS011;35889;51.442;6.408;2022-07-10T09:51:12;0.80;;;0.80;;
50002;SDS011;35889;51.442;6.408;2022-07-10T09:56:06;0.70;;;0.70;;
50002;SDS011;35889;51.442;6.408;2022-07-10T09:58:35;0.80;;;0.80;;
50002;SDS011;35889;51.442;6.408;2022-07-10T10:01:02;0.80;;;0.80;;
50002;SDS011;35889;51.442;6.408;2022-07-10T10:03:39;0.90;;;0.90;;
50002;SDS011;35889;51.442;6.408;2022-07-10T10:11:25;0.70;;;0.70;;
50002;SDS011;35889;51.442;6.408;2022-07-10T10:13:51;0.80;;;0.80;;
50002;SDS011;35889;51.442;6.408;2022-07-10T10:16:19;0.70;;;0.70;;
50002;SDS011;35889;51.442;6.408;2022-07-10T10:18:45;0.70;;;0.70;;
50002;SDS011;35889;51.442;6.408;2022-07-10T10:21:30;0.70;;;0.70;;
50002;SDS011;35889;51.442;6.408;2022-07-10T10:23:55;0.70;;;0.70;;
50002;SDS011;35889;51.442;6.408;2022-07-10T10:26:24;0.70;;;0.70;;
50002;SDS011;35889;51.442;6.408;2022-07-10T10:28:52;0.80;;;0.80;;
50002;SDS011;35889;51.442;6.408;2022-07-10T10:31:23;0.77;;;0.77;;
50002;SDS011;35889;51.442;6.408;2022-07-10T10:33:49;0.60;;;0.60;;
50002;SDS011;35889;51.442;6.408;2022-07-10T10:39:22;0.70;;;0.70;;
50002;SDS011;35889;51.442;6.408;2022-07-10T10:49:20;0.60;;;0.60;;
50002;SDS011;35889;51.442;6.408;2022-07-10T10:51:57;0.80;;;0.80;;
50002;SDS011;35889;51.442;6.408;2022-07-10T10:54:22;0.70;;;0.70;;
50002;SDS011;35889;51.442;6.408;2022-07-10T10:59:48;0.70;;;0.70;;
50002;SDS011;35889;51.442;6.408;2022-07-10T11:02:31;0.70;;;0.70;;
50002;SDS011;35889;51.442;6.408;2022-07-10T11:07:58;0.65;;;0.65;;
50002;SDS011;35889;51.442;6.408;2022-07-10T11:10:28;0.70;;;0.70;;
50002;SDS011;35889;51.442;6.408;2022-07-10T11:15:38;0.70;;;0.70;;
50002;SDS011;35889;51.442;6.408;2022-07-10T11:18:08;0.80;;;0.80;;
50002;SDS011;35889;51.442;6.408;2022-07-10T11:26:10;0.70;;;0.70;;
50002;SDS011;35889;51.442;6.408;2022-07-10T11:31:08;0.80;;;0.80;;
50002;SDS011;35889;51.442;6.408;2022-07-10T11:33:43;0.70;;;0.70;;
50002;SDS011;35889;51.442;6.408;2022-07-10T11:36:12;0.70;;;0.70;;
50002;SDS011;35889;51.442;6.408;2022-07-10T11:38:39;0.70;;;0.70;;
50002;SDS011;35889;51.442;6.408;2022-07-10T11:41:19;0.70;;;0.70;;
50002;SDS011;35889;51.442;6.408;2022-07-10T11:46:20;0.70;;;0.70;;
50002;SDS011;35889;51.442;6.408;2022-07-10T11:48:48;0.70;;;0.70;;
50002;SDS011;35889;51.442;6.408;2022-07-10T11:51:20;0.70;;;0.70;;
50002;SDS011;35889;51.442;6.408;2022-07-10T11:54:12;0.70;;;0.70;;
50002;SDS011;35889;51.442;6.408;2022-07-10T11:56:46;0.70;;;0.70;;
50002;SDS011;35889;51.442;6.408;2022-07-10T11:59:13;0.70;;;0.70;;
50002;SDS011;35889;51.442;6.408;2022-07-10T12:01:49;0.73;;;0.73;;
50002;SDS011;35889;51.442;6.408;2022-07-10T12:04:17;0.80;;;0.80;;
50002;SDS011;35889;51.442;6.408;2022-07-10T12:06:44;0.80;;;0.80;;
50002;SDS011;35889;51.442;6.408;2022-07-10T12:09:14;0.80;;;0.80;;
50002;SDS011;35889;51.442;6.408;2022-07-10T12:11:41;0.70;;;0.70;;
50002;SDS011;35889;51.442;6.408;2022-07-10T12:14:14;0.70;;;0.70;;
50002;SDS011;35889;51.442;6.408;2022-07-10T12:16:42;0.70;;;0.70;;
50002;SDS011;35889;51.442;6.408;2022-07-10T12:19:09;0.70;;;0.70;;
50002;SDS011;35889;51.442;6.408;2022-07-10T12:21:36;0.70;;;0.70;;
50002;SDS011;35889;51.442;6.408;2022-07-10T12:24:02;0.80;;;0.80;;
50002;SDS011;35889;51.442;6.408;2022-07-10T12:26:32;0.70;;;0.70;;
50002;SDS011;35889;51.442;6.408;2022-07-10T12:29:00;0.80;;;0.80;;
50002;SDS011;35889;51.442;6.408;2022-07-10T12:31:26;0.80;;;0.80;;
50002;SDS011;35889;51.442;6.408;2022-07-10T12:33:59;0.80;;;0.80;;
50002;SDS011;35889;51.442;6.408;2022-07-10T12:36:52;0.70;;;0.70;;
50002;SDS011;35889;51.442;6.408;2022-07-10T12:39:21;0.80;;;0.80;;
50002;SDS011;35889;51.442;6.408;2022-07-10T12:44:39;0.80;;;0.80;;
50002;SDS011;35889;51.442;6.408;2022-07-10T12:47:15;0.80;;;0.80;;
50002;SDS011;35889;51.442;6.408;2022-07-10T12:52:30;0.80;;;0.80;;
50002;SDS011;35889;51.442;6.408;2022-07-10T13:00:23;0.80;;;0.80;;
50002;SDS011;35889;51.442;6.408;2022-07-10T13:02:57;0.80;;;0.80;;
50002;SDS011;35889;51.442;6.408;2022-07-10T13:10:40;0.80;;;0.80;;
50002;SDS011;35889;51.442;6.408;2022-07-10T13:13:06;0.70;;;0.70;;
50002;SDS011;35889;51.442;6.408;2022-07-10T13:15:32;0.70;;;0.70;;
50002;SDS011;35889;51.442;6.408;2022-07-10T13:18:18;0.73;;;0.73;;
50002;SDS011;35889;51.442;6.408;2022-07-10T13:20:46;0.70;;;0.70;;
50002;SDS011;35889;51.442;6.408;2022-07-10T13:23:12;0.80;;;0.80;;
50002;SDS011;35889;51.442;6.408;2022-07-10T13:25:38;0.80;;;0.80;;
50002;SDS011;35889;51.442;6.408;2022-07-10T13:28:05;0.80;;;0.80;;
50002;SDS011;35889;51.442;6.408;2022-07-10T13:30:31;0.73;;;0.73;;
50002;SDS011;35889;51.442;6.408;2022-07-10T13:32:57;0.80;;;0.80;;
50002;SDS011;35889;51.442;6.408;2022-07-10T13:35:23;0.70;;;0.70;;
50002;SDS011;35889;51.442;6.408;2022-07-10T13:37:49;0.70;;;0.70;;
50002;SDS011;35889;51.442;6.408;2022-07-10T13:40:15;0.70;;;0.70;;
50002;SDS011;35889;51.442;6.408;2022-07-10T13:42:41;0.73;;;0.73;;
50002;SDS011;35889;51.442;6.408;2022-07-10T13:45:07;0.80;;;0.80;;
50002;SDS011;35889;51.442;6.408;2022-07-10T13:47:33;0.70;;;0.70;;
50002;SDS011;35889;51.442;6.408;2022-07-10T13:49:59;0.80;;;0.80;;
50002;SDS011;35889;51.442;6.408;2022-07-10T13:52:24;0.80;;;0.80;;
50002;SDS011;35889;51.442;6.408;2022-07-10T13:54:50;0.80;;;0.80;;
50002;SDS011;35889;51.442;6.408;2022-07-10T13:57:16;0.80;;;0.80;;
50002;SDS011;35889;51.442;6.408;2022-07-10T13:59:41;0.70;;;0.70;;
50002;SDS011;35889;51.442;6.408;2022-07-10T14:02:07;0.80;;;0.80;;
50002;SDS011;35889;51.442;6.408;2022-07-10T14:04:32;0.70;;;0.70;;
50002;SDS011;35889;51.442;6.408;2022-07-10T14:06:58;0.70;;;0.70;;
50002;SDS011;35889;51.442;6.408;2022-07-10T14:09:23;0.80;;;0.80;;
50002;SDS011;35889;51.442;6.408;2022-07-10T14:11:49;0.80;;;0.80;;
50002;SDS011;35889;51.442;6.408;2022-07-10T14:14:15;0.70;;;0.70;;
50002;SDS011;35889;51.442;6.408;2022-07-10T14:16:40;0.80;;;0.80;;
50002;SDS011;35889;51.442;6.408;2022-07-10T14:19:08;0.80;;;0.80;;
50002;SDS011;35889;51.442;6.408;2022-07-10T14:21:33;0.80;;;0.80;;
50002;SDS011;35889;51.442;6.408;2022-07-10T14:24:00;0.77;;;0.77;;
50002;SDS011;35889;51.442;6.408;2022-07-10T14:26:27;0.73;;;0.73;;
50002;SDS011;35889;51.442;6.408;2022-07-10T14:28:52;0.80;;;0.80;;
50002;SDS011;35889;51.442;6.408;2022-07-10T14:31:19;0.70;;;0.70;;
50002;SDS011;35889;51.442;6.408;2022-07-10T14:33:44;0.80;;;0.80;;
50002;SDS011;35889;51.442;6.408;2022-07-10T14:36:09;0.80;;;0.80;;
50002;SDS011;35889;51.442;6.408;2022-07-10T14:38:35;1.00;;;1.00;;
50002;SDS011;35889;51.442;6.408;2022-07-10T14:41:01;0.80;;;0.80;;
50002;SDS011;35889;51.442;6.408;2022-07-10T14:43:27;0.80;;;0.80;;
50002;SDS011;35889;51.442;6.408;2022-07-10T14:45:53;0.85;;;0.85;;
50002;SDS011;35889;51.442;6.408;2022-07-10T14:48:19;0.80;;;0.80;;
50002;SDS011;35889;51.442;6.408;2022-07-10T14:50:44;1.08;;;1.08;;
50002;SDS011;35889;51.442;6.408;2022-07-10T14:53:10;0.80;;;0.80;;
50002;SDS011;35889;51.442;6.408;2022-07-10T14:55:36;0.70;;;0.70;;
50002;SDS011;35889;51.442;6.408;2022-07-10T14:58:02;0.80;;;0.80;;
50002;SDS011;35889;51.442;6.408;2022-07-10T15:00:28;0.70;;;0.70;;
50002;SDS011;35889;51.442;6.408;2022-07-10T15:02:53;0.70;;;0.70;;
50002;SDS011;35889;51.442;6.408;2022-07-10T15:05:19;0.70;;;0.70;;
50002;SDS011;35889;51.442;6.408;2022-07-10T15:07:44;0.70;;;0.70;;
50002;SDS011;35889;51.442;6.408;2022-07-10T15:10:09;0.70;;;0.70;;
50002;SDS011;35889;51.442;6.408;2022-07-10T15:12:35;0.70;;;0.70;;
50002;SDS011;35889;51.442;6.408;2022-07-10T15:15:04;0.60;;;0.60;;
50002;SDS011;35889;51.442;6.408;2022-07-10T15:17:29;0.60;;;0.60;;
50002;SDS011;35889;51.442;6.408;2022-07-10T15:19:55;0.65;;;0.65;;
50002;SDS011;35889;51.442;6.408;2022-07-10T15:22:21;0.70;;;0.70;;
50002;SDS011;35889;51.442;6.408;2022-07-10T15:24:46;0.70;;;0.70;;
50002;SDS011;35889;51.442;6.408;2022-07-10T15:27:14;0.70;;;0.70;;
50002;SDS011;35889;51.442;6.408;2022-07-10T15:29:40;0.70;;;0.70;;
50002;SDS011;35889;51.442;6.408;2022-07-10T15:32:05;0.77;;;0.77;;
50002;SDS011;35889;51.442;6.408;2022-07-10T15:34:31;0.80;;;0.80;;
50002;SDS011;35889;51.442;6.408;2022-07-10T15:36:57;0.70;;;0.70;;
50002;SDS011;35889;51.442;6.408;2022-07-10T15:39:22;0.70;;;0.70;;
50002;SDS011;35889;51.442;6.408;2022-07-10T15:41:49;0.68;;;0.68;;
50002;SDS011;35889;51.442;6.408;2022-07-10T15:44:14;0.70;;;0.70;;
50002;SDS011;35889;51.442;6.408;2022-07-10T15:46:40;0.70;;;0.70;;